Time;durP1;ratioP1;P1;durP2;ratioP2;P2;SDS_P1;SDS_P2;PMS_P1;PMS_P2;Temp;Humidity;BMP_temperature;BMP_pressure;BME280_temperature;BME280_humidity;BME280_pressure;Samples;Min_cycle;Max_cycle;Signal;HPM_P1;HPM_P2
2022/05/03 00:02:19;;;;;;;274.87;94.17;;;;;;;;;;5050073;28;20446;-71
2022/05/03 00:07:37;;;;;;;263.67;96.50;;;;;;;;;;5051273;28;20568;-71
2022/05/03 00:10:07;;;;;;;266.43;99.07;;;;;;;;;;5055484;28;21031;-70
2022/05/03 00:12:42;;;;;;;254.17;91.87;;;;;;;;;;5054131;28;20471;-70
2022/05/03 00:15:15;;;;;;;255.57;88.23;;;;;;;;;;5055617;28;20492;-72
2022/05/03 00:17:44;;;;;;;242.43;88.50;;;;;;;;;;5054809;28;20450;-71
2022/05/03 00:20:14;;;;;;;271.20;93.77;;;;;;;;;;5055299;28;20489;-71
2022/05/03 00:22:49;;;;;;;252.83;89.73;;;;;;;;;;5054988;28;20518;-71
2022/05/03 00:25:18;;;;;;;253.57;87.53;;;;;;;;;;5055187;28;20452;-71
2022/05/03 00:27:47;;;;;;;248.23;86.50;;;;;;;;;;5054871;28;20464;-71
2022/05/03 00:30:15;;;;;;;268.17;93.07;;;;;;;;;;5055050;28;20473;-71
2022/05/03 00:32:44;;;;;;;268.63;92.53;;;;;;;;;;5055258;28;20872;-71
2022/05/03 00:35:12;;;;;;;268.77;92.27;;;;;;;;;;5055124;28;20742;-71
2022/05/03 00:37:40;;;;;;;274.57;92.03;;;;;;;;;;5054689;28;20460;-76
2022/05/03 00:40:09;;;;;;;275.43;93.40;;;;;;;;;;5054294;28;20508;-71
2022/05/03 00:42:43;;;;;;;277.07;91.37;;;;;;;;;;5054468;28;20457;-71
2022/05/03 00:45:16;;;;;;;262.53;84.33;;;;;;;;;;5054961;28;20465;-71
2022/05/03 00:47:48;;;;;;;261.00;89.67;;;;;;;;;;5054697;28;20446;-72
2022/05/03 00:50:21;;;;;;;262.10;84.90;;;;;;;;;;5054772;28;20481;-72
2022/05/03 00:52:51;;;;;;;269.83;89.70;;;;;;;;;;5054584;28;20528;-72
2022/05/03 00:55:34;;;;;;;274.80;92.07;;;;;;;;;;5054690;28;20742;-72
2022/05/03 00:58:14;;;;;;;271.73;89.47;;;;;;;;;;5051537;28;21184;-72
2022/05/03 01:00:48;;;;;;;228.07;86.03;;;;;;;;;;5050936;28;20581;-72
2022/05/03 01:03:19;;;;;;;209.30;79.87;;;;;;;;;;5047730;28;20467;-71
2022/05/03 01:05:50;;;;;;;219.53;88.03;;;;;;;;;;5054410;28;20560;-72
2022/05/03 01:08:26;;;;;;;250.27;88.47;;;;;;;;;;5054739;28;20492;-72
2022/05/03 01:11:02;;;;;;;257.60;86.40;;;;;;;;;;5054557;28;20560;-71
2022/05/03 01:13:31;;;;;;;237.10;80.77;;;;;;;;;;5053841;28;20876;-72
2022/05/03 01:16:04;;;;;;;245.47;87.70;;;;;;;;;;5053805;28;20446;-71
2022/05/03 01:18:41;;;;;;;244.57;84.20;;;;;;;;;;5056045;28;20571;-71
2022/05/03 01:21:13;;;;;;;248.07;82.93;;;;;;;;;;5058138;28;20457;-72
2022/05/03 01:24:05;;;;;;;242.47;82.97;;;;;;;;;;5057941;28;20462;-72
2022/05/03 01:26:52;;;;;;;307.87;77.93;;;;;;;;;;5053037;28;20857;-72
2022/05/03 01:29:34;;;;;;;351.10;86.57;;;;;;;;;;5057735;28;20934;-72
2022/05/03 01:32:03;;;;;;;347.10;86.10;;;;;;;;;;5057517;28;20476;-71
2022/05/03 01:34:31;;;;;;;327.13;88.07;;;;;;;;;;5052002;28;20476;-71
2022/05/03 01:37:06;;;;;;;353.17;89.30;;;;;;;;;;5055146;28;20455;-72
2022/05/03 01:39:38;;;;;;;306.27;86.43;;;;;;;;;;5057529;28;20928;-72
2022/05/03 01:42:19;;;;;;;304.77;86.33;;;;;;;;;;5054898;28;20483;-72
2022/05/03 01:44:58;;;;;;;350.10;88.10;;;;;;;;;;5057642;28;20514;-71
2022/05/03 01:47:31;;;;;;;335.47;85.63;;;;;;;;;;5049868;28;20464;-71
2022/05/03 01:50:20;;;;;;;339.17;85.77;;;;;;;;;;5056945;28;20446;-72
2022/05/03 01:53:05;;;;;;;208.37;76.13;;;;;;;;;;5058061;28;20469;-71
2022/05/03 01:55:43;;;;;;;206.10;75.87;;;;;;;;;;5050716;28;20544;-72
2022/05/03 01:58:19;;;;;;;231.37;82.50;;;;;;;;;;5057570;28;20477;-72
2022/05/03 02:00:59;;;;;;;222.50;78.30;;;;;;;;;;5057758;28;20923;-72
2022/05/03 02:03:31;;;;;;;237.73;79.67;;;;;;;;;;5055926;28;20807;-70
2022/05/03 02:06:07;;;;;;;243.17;75.57;;;;;;;;;;5049022;28;20469;-71
2022/05/03 02:08:43;;;;;;;264.47;79.90;;;;;;;;;;5051163;28;21047;-71
2022/05/03 02:11:20;;;;;;;300.40;77.77;;;;;;;;;;5056910;28;20916;-71
2022/05/03 02:16:55;;;;;;;347.63;85.73;;;;;;;;;;5057150;28;20445;-71
2022/05/03 02:19:33;;;;;;;344.50;82.60;;;;;;;;;;5056868;28;20499;-72
2022/05/03 02:22:04;;;;;;;348.13;83.70;;;;;;;;;;5057576;28;20461;-72
2022/05/03 02:24:38;;;;;;;344.67;84.70;;;;;;;;;;5056830;28;20454;-71
2022/05/03 02:27:09;;;;;;;336.63;78.37;;;;;;;;;;5057202;28;20889;-71
2022/05/03 02:29:41;;;;;;;332.67;81.23;;;;;;;;;;5056044;28;20464;-71
2022/05/03 02:32:12;;;;;;;340.47;81.83;;;;;;;;;;5056880;28;20523;-72
2022/05/03 02:34:43;;;;;;;338.13;83.03;;;;;;;;;;5048629;28;20552;-71
2022/05/03 02:37:15;;;;;;;240.13;77.97;;;;;;;;;;5056370;28;20532;-71
2022/05/03 02:39:49;;;;;;;232.27;75.77;;;;;;;;;;5056155;28;20481;-71
2022/05/03 02:42:20;;;;;;;227.13;73.97;;;;;;;;;;5049470;28;20890;-71
2022/05/03 02:44:49;;;;;;;275.77;77.87;;;;;;;;;;5056091;28;20544;-71
2022/05/03 02:47:25;;;;;;;262.20;79.90;;;;;;;;;;5056258;28;20502;-71
2022/05/03 02:50:02;;;;;;;265.10;78.33;;;;;;;;;;5055821;28;20469;-71
2022/05/03 02:52:31;;;;;;;284.87;74.80;;;;;;;;;;5056188;28;20703;-70
2022/05/03 02:55:07;;;;;;;296.27;87.40;;;;;;;;;;5055923;28;20973;-72
2022/05/03 02:57:42;;;;;;;274.87;77.40;;;;;;;;;;5055782;28;20492;-71
2022/05/03 03:03:13;;;;;;;294.03;86.57;;;;;;;;;;5047819;28;20437;-71
2022/05/03 03:05:44;;;;;;;273.77;78.60;;;;;;;;;;5055717;28;20461;-70
2022/05/03 03:08:13;;;;;;;270.90;76.77;;;;;;;;;;5056505;28;20454;-70
2022/05/03 03:10:45;;;;;;;272.67;77.37;;;;;;;;;;5055562;28;20473;-70
2022/05/03 03:13:17;;;;;;;274.40;77.40;;;;;;;;;;5049062;28;21004;-71
2022/05/03 03:15:45;;;;;;;254.77;76.00;;;;;;;;;;5055858;28;20548;-71
2022/05/03 03:18:16;;;;;;;285.77;80.77;;;;;;;;;;5055490;28;20464;-72
2022/05/03 03:20:45;;;;;;;286.47;77.73;;;;;;;;;;5047350;28;20485;-71
2022/05/03 03:23:18;;;;;;;280.17;78.13;;;;;;;;;;5056182;28;20480;-71
2022/05/03 03:25:48;;;;;;;267.30;75.50;;;;;;;;;;5055678;28;20527;-72
2022/05/03 03:28:19;;;;;;;244.57;72.30;;;;;;;;;;5055449;28;20457;-71
2022/05/03 03:30:49;;;;;;;263.37;75.00;;;;;;;;;;5055287;28;20488;-72
2022/05/03 03:33:19;;;;;;;300.10;82.17;;;;;;;;;;5055315;28;20452;-72
2022/05/03 03:35:47;;;;;;;303.87;81.60;;;;;;;;;;5054963;28;20944;-72
2022/05/03 03:38:15;;;;;;;297.50;79.60;;;;;;;;;;5055225;28;20450;-72
2022/05/03 03:40:49;;;;;;;300.63;84.03;;;;;;;;;;5048317;28;20493;-72
2022/05/03 03:43:17;;;;;;;235.23;70.83;;;;;;;;;;5047633;28;20748;-72
2022/05/03 03:45:45;;;;;;;129.33;61.93;;;;;;;;;;5055326;28;20730;-72
2022/05/03 03:48:13;;;;;;;178.37;66.83;;;;;;;;;;5055277;28;20485;-71
2022/05/03 03:50:45;;;;;;;176.83;64.50;;;;;;;;;;5054832;28;20480;-72
2022/05/03 03:53:15;;;;;;;175.70;63.67;;;;;;;;;;5055514;28;20680;-71
2022/05/03 03:55:44;;;;;;;228.97;73.10;;;;;;;;;;5053966;28;20453;-71
2022/05/03 03:58:13;;;;;;;221.90;69.20;;;;;;;;;;5054742;28;21062;-71
2022/05/03 04:00:43;;;;;;;198.33;69.13;;;;;;;;;;5053845;28;20596;-72
2022/05/03 04:03:11;;;;;;;174.57;68.77;;;;;;;;;;5066809;28;20535;-71
2022/05/03 04:05:39;;;;;;;222.57;72.83;;;;;;;;;;5054952;28;20492;-71
2022/05/03 04:08:10;;;;;;;210.10;69.50;;;;;;;;;;5060698;28;20460;-71
2022/05/03 04:10:40;;;;;;;222.67;76.40;;;;;;;;;;5054250;28;20789;-72
2022/05/03 04:13:08;;;;;;;211.37;68.77;;;;;;;;;;5054676;28;20782;-72
2022/05/03 04:15:38;;;;;;;247.13;73.50;;;;;;;;;;5055268;28;20485;-72
2022/05/03 04:18:07;;;;;;;187.83;68.87;;;;;;;;;;5054892;28;20450;-72
2022/05/03 04:20:37;;;;;;;200.43;69.10;;;;;;;;;;5054613;28;20485;-71
2022/05/03 04:23:05;;;;;;;232.00;72.57;;;;;;;;;;5054556;28;20515;-72
2022/05/03 04:25:34;;;;;;;322.37;85.50;;;;;;;;;;5054679;28;20461;-71
2022/05/03 04:28:02;;;;;;;309.87;85.77;;;;;;;;;;5054762;28;20445;-71
2022/05/03 04:30:30;;;;;;;249.53;71.87;;;;;;;;;;5054144;28;20462;-72
2022/05/03 04:33:01;;;;;;;318.30;82.47;;;;;;;;;;5052609;28;21014;-72
2022/05/03 04:35:29;;;;;;;306.30;80.40;;;;;;;;;;5054012;28;20731;-72
2022/05/03 04:37:57;;;;;;;240.63;72.97;;;;;;;;;;5045624;28;20536;-72
2022/05/03 04:40:34;;;;;;;254.40;78.77;;;;;;;;;;5053783;28;20481;-71
2022/05/03 04:43:03;;;;;;;231.67;78.17;;;;;;;;;;5053530;28;20453;-71
2022/05/03 04:45:31;;;;;;;241.27;76.80;;;;;;;;;;5053302;28;20453;-72
2022/05/03 04:47:59;;;;;;;166.47;69.87;;;;;;;;;;5053364;28;20461;-72
2022/05/03 04:50:26;;;;;;;226.27;75.10;;;;;;;;;;5053260;28;20511;-72
2022/05/03 04:53:17;;;;;;;120.37;65.37;;;;;;;;;;5054581;28;20462;-72
2022/05/03 04:55:46;;;;;;;176.33;67.83;;;;;;;;;;5048668;28;20461;-72
2022/05/03 04:58:17;;;;;;;189.60;73.90;;;;;;;;;;5056175;28;20805;-71
2022/05/03 05:03:41;;;;;;;130.10;68.37;;;;;;;;;;5050728;28;20488;-72
2022/05/03 05:06:10;;;;;;;159.13;71.00;;;;;;;;;;5054180;28;20457;-71
2022/05/03 05:08:38;;;;;;;180.83;82.43;;;;;;;;;;5056322;28;20561;-71
2022/05/03 05:11:06;;;;;;;227.83;93.00;;;;;;;;;;5055530;28;20862;-70
2022/05/03 05:13:41;;;;;;;308.37;96.57;;;;;;;;;;5054946;28;20457;-71
2022/05/03 05:16:26;;;;;;;312.57;100.93;;;;;;;;;;5053601;28;20468;-71
2022/05/03 05:18:55;;;;;;;309.73;99.83;;;;;;;;;;5054071;28;20460;-71
2022/05/03 05:24:10;;;;;;;292.40;103.67;;;;;;;;;;5043189;28;20535;-71
2022/05/03 05:26:38;;;;;;;118.77;97.97;;;;;;;;;;5054250;28;20465;-71
2022/05/03 05:29:21;;;;;;;148.83;103.40;;;;;;;;;;5058951;28;20989;-72
2022/05/03 05:31:53;;;;;;;144.93;94.67;;;;;;;;;;5054432;28;20465;-70
2022/05/03 05:34:22;;;;;;;187.83;104.03;;;;;;;;;;5053786;28;20844;-72
2022/05/03 05:36:50;;;;;;;207.57;116.27;;;;;;;;;;5053581;28;20534;-70
2022/05/03 05:39:18;;;;;;;100.33;91.33;;;;;;;;;;5052952;28;20940;-71
2022/05/03 05:41:55;;;;;;;124.97;107.77;;;;;;;;;;5054152;28;20477;-72
2022/05/03 05:44:24;;;;;;;121.00;107.90;;;;;;;;;;5053695;28;20767;-72
2022/05/03 05:46:55;;;;;;;210.73;127.90;;;;;;;;;;5052675;28;20901;-73
2022/05/03 05:49:23;;;;;;;186.07;128.03;;;;;;;;;;5052693;28;20478;-72
2022/05/03 05:53:31;;;;;;;183.80;136.03;;;;;;;;;;5053550;28;21197;-73
2022/05/03 05:54:40;;;;;;;182.33;123.97;;;;;;;;;;5046633;28;20534;-72
2022/05/03 05:57:07;;;;;;;190.33;120.77;;;;;;;;;;5054812;28;20468;-73
2022/05/03 05:59:37;;;;;;;180.57;128.37;;;;;;;;;;5054206;28;20797;-72
2022/05/03 06:02:05;;;;;;;245.10;120.57;;;;;;;;;;5053921;28;20492;-71
2022/05/03 06:04:33;;;;;;;249.57;124.17;;;;;;;;;;5052444;28;20835;-72
2022/05/03 06:07:01;;;;;;;336.73;115.10;;;;;;;;;;5050550;28;20524;-72
2022/05/03 06:09:29;;;;;;;342.13;116.37;;;;;;;;;;5055293;28;20925;-71
2022/05/03 06:11:57;;;;;;;325.97;104.20;;;;;;;;;;5054716;28;20466;-71
2022/05/03 06:14:25;;;;;;;331.43;109.93;;;;;;;;;;5054844;28;20464;-71
2022/05/03 06:16:55;;;;;;;286.50;114.37;;;;;;;;;;5056310;28;20465;-71
2022/05/03 06:19:24;;;;;;;280.17;109.03;;;;;;;;;;5054983;28;20449;-73
2022/05/03 06:21:56;;;;;;;354.67;108.07;;;;;;;;;;5053883;28;20580;-74
2022/05/03 06:24:24;;;;;;;366.03;109.43;;;;;;;;;;5054204;28;20442;-72
2022/05/03 06:26:54;;;;;;;364.77;108.67;;;;;;;;;;5055117;28;20461;-71
2022/05/03 06:29:22;;;;;;;336.77;113.77;;;;;;;;;;5054772;28;20453;-72
2022/05/03 06:31:50;;;;;;;277.67;104.37;;;;;;;;;;5054405;28;20465;-72
2022/05/03 06:34:20;;;;;;;187.10;105.37;;;;;;;;;;5054617;28;20458;-70
2022/05/03 06:36:49;;;;;;;323.37;122.87;;;;;;;;;;5055176;28;20461;-72
2022/05/03 06:39:19;;;;;;;223.23;117.33;;;;;;;;;;5055106;28;20820;-72
2022/05/03 06:42:09;;;;;;;373.13;115.97;;;;;;;;;;5054805;28;20509;-72
2022/05/03 06:44:41;;;;;;;272.20;120.47;;;;;;;;;;5054095;28;20457;-71
2022/05/03 06:47:09;;;;;;;268.53;119.60;;;;;;;;;;5054382;28;20888;-72
2022/05/03 06:49:45;;;;;;;318.13;129.47;;;;;;;;;;5054763;28;20445;-72
2022/05/03 06:52:13;;;;;;;287.67;121.37;;;;;;;;;;5054551;28;20457;-71
2022/05/03 06:54:41;;;;;;;375.43;125.17;;;;;;;;;;5053813;28;20446;-71
2022/05/03 06:57:21;;;;;;;325.77;123.03;;;;;;;;;;5054353;28;20470;-72
2022/05/03 06:59:49;;;;;;;138.27;113.77;;;;;;;;;;5054618;28;20457;-71
2022/05/03 07:02:17;;;;;;;152.60;121.87;;;;;;;;;;5054488;28;20998;-71
2022/05/03 07:04:51;;;;;;;159.90;119.83;;;;;;;;;;5053173;28;20450;-74
2022/05/03 07:07:22;;;;;;;183.03;127.37;;;;;;;;;;5050538;28;20477;-70
2022/05/03 07:09:49;;;;;;;135.63;120.73;;;;;;;;;;5049907;28;20456;-72
2022/05/03 07:12:18;;;;;;;231.47;126.97;;;;;;;;;;5060000;28;20465;-72
2022/05/03 07:14:51;;;;;;;149.33;129.50;;;;;;;;;;5057096;28;20552;-71
2022/05/03 07:22:55;;;;;;;384.87;131.00;;;;;;;;;;5047358;28;20472;-70
2022/05/03 07:25:22;;;;;;;316.83;131.70;;;;;;;;;;5052878;28;20442;-71
2022/05/03 07:27:53;;;;;;;338.50;142.17;;;;;;;;;;5054370;28;20537;-71
2022/05/03 07:30:21;;;;;;;348.20;137.50;;;;;;;;;;5053233;28;20453;-70
2022/05/03 07:32:49;;;;;;;302.80;131.53;;;;;;;;;;5053984;28;20749;-70
2022/05/03 07:35:24;;;;;;;332.50;143.83;;;;;;;;;;5049178;28;20504;-71
2022/05/03 07:37:52;;;;;;;288.00;128.03;;;;;;;;;;5052390;28;20528;-70
2022/05/03 07:40:20;;;;;;;268.83;136.27;;;;;;;;;;5053239;28;20523;-70
2022/05/03 07:42:52;;;;;;;328.97;140.80;;;;;;;;;;5052912;28;20476;-72
2022/05/03 07:45:23;;;;;;;330.93;172.60;;;;;;;;;;5051713;28;20505;-71
2022/05/03 07:48:35;;;;;;;;;;;;;;;;;;;;;
2022/05/03 07:51:21;;;;;;;309.43;183.77;;;;;;;;;;5049040;28;20888;-71
2022/05/03 07:53:58;;;;;;;282.93;154.43;;;;;;;;;;5047571;28;20472;-70
2022/05/03 07:56:26;;;;;;;293.07;163.30;;;;;;;;;;5042169;28;20463;-69
2022/05/03 07:58:56;;;;;;;300.87;148.10;;;;;;;;;;5051192;28;20742;-70
2022/05/03 08:04:08;;;;;;;336.77;138.53;;;;;;;;;;5050985;28;20471;-71
2022/05/03 08:06:44;;;;;;;327.97;140.37;;;;;;;;;;5051912;28;20457;-71
2022/05/03 08:09:19;;;;;;;258.27;146.93;;;;;;;;;;5054324;28;20556;-71
2022/05/03 08:11:50;;;;;;;187.80;146.90;;;;;;;;;;5045741;28;20549;-73
2022/05/03 08:14:18;;;;;;;186.03;148.20;;;;;;;;;;5051829;28;20457;-71
2022/05/03 08:16:48;;;;;;;272.90;149.60;;;;;;;;;;5051871;28;20446;-71
2022/05/03 08:19:20;;;;;;;68.67;64.57;;;;;;;;;;5052836;28;20476;-71
2022/05/03 08:22:01;;;;;;;275.10;161.77;;;;;;;;;;5053121;28;20547;-71
2022/05/03 08:24:40;;;;;;;263.73;156.93;;;;;;;;;;5052015;28;20461;-71
2022/05/03 08:27:11;;;;;;;280.83;144.13;;;;;;;;;;5052309;28;20979;-72
2022/05/03 08:29:39;;;;;;;358.70;164.03;;;;;;;;;;5053405;28;20474;-71
2022/05/03 08:32:09;;;;;;;299.63;166.07;;;;;;;;;;5056426;28;20465;-73
2022/05/03 08:34:39;;;;;;;355.77;167.97;;;;;;;;;;5062088;28;20449;-72
2022/05/03 08:42:56;;;;;;;279.47;150.83;;;;;;;;;;5053615;28;20480;-73
2022/05/03 08:45:28;;;;;;;324.07;150.30;;;;;;;;;;5052735;28;20501;-73
2022/05/03 08:48:13;;;;;;;330.60;161.27;;;;;;;;;;5051254;28;20575;-71
2022/05/03 08:50:51;;;;;;;352.27;166.73;;;;;;;;;;5044612;28;20492;-72
2022/05/03 08:53:21;;;;;;;394.07;168.93;;;;;;;;;;5051824;28;20449;-71
2022/05/03 08:55:58;;;;;;;366.73;157.73;;;;;;;;;;5050047;28;20477;-72
2022/05/03 08:58:43;;;;;;;379.27;144.57;;;;;;;;;;5051441;28;20457;-73
2022/05/03 09:01:14;;;;;;;386.57;162.23;;;;;;;;;;5052442;28;20819;-73
2022/05/03 09:03:48;;;;;;;328.47;154.77;;;;;;;;;;5051164;28;20873;-72
2022/05/03 09:06:16;;;;;;;395.77;149.03;;;;;;;;;;5046828;28;20458;-72
2022/05/03 09:08:52;;;;;;;397.37;158.50;;;;;;;;;;5052481;28;20519;-73
2022/05/03 09:11:24;;;;;;;376.70;152.60;;;;;;;;;;5052619;28;20915;-74
2022/05/03 09:13:58;;;;;;;375.00;144.17;;;;;;;;;;5050211;28;20866;-73
2022/05/03 09:17:02;;;;;;;400.57;155.57;;;;;;;;;;5052191;28;20490;-74
2022/05/03 09:19:30;;;;;;;342.17;154.93;;;;;;;;;;5049445;28;21013;-72
2022/05/03 09:24:55;;;;;;;376.13;166.17;;;;;;;;;;5053355;28;20515;-73
2022/05/03 09:27:31;;;;;;;363.77;152.00;;;;;;;;;;5053555;28;20453;-72
2022/05/03 09:32:59;;;;;;;365.53;172.53;;;;;;;;;;5052420;28;20480;-72
2022/05/03 09:38:57;;;;;;;;;;;;;;;;;;;;;
2022/05/03 09:41:34;;;;;;;220.30;168.27;;;;;;;;;;5051863;28;20449;-73
2022/05/03 09:44:09;;;;;;;384.93;171.13;;;;;;;;;;5058096;28;20453;-74
2022/05/03 09:46:54;;;;;;;224.10;154.70;;;;;;;;;;5058053;28;20461;-73
2022/05/03 09:49:37;;;;;;;210.57;160.30;;;;;;;;;;5055970;28;20514;-74
2022/05/03 09:52:12;;;;;;;202.63;166.00;;;;;;;;;;5055634;28;20563;-73
2022/05/03 09:54:59;;;;;;;193.37;157.40;;;;;;;;;;5050660;28;20460;-72
2022/05/03 09:57:30;;;;;;;168.83;151.80;;;;;;;;;;5047287;28;20535;-72
2022/05/03 10:00:08;;;;;;;176.03;158.73;;;;;;;;;;5054870;28;20541;-72
2022/05/03 10:02:47;;;;;;;176.93;144.77;;;;;;;;;;5055277;28;20489;-74
2022/05/03 10:05:21;;;;;;;227.70;151.97;;;;;;;;;;5055967;28;20519;-72
2022/05/03 10:07:51;;;;;;;312.57;159.60;;;;;;;;;;5056422;28;20462;-72
2022/05/03 10:10:24;;;;;;;366.40;180.43;;;;;;;;;;5066250;28;20453;-73
2022/05/03 10:13:07;;;;;;;172.97;154.40;;;;;;;;;;5056716;28;20461;-72
2022/05/03 10:21:14;;;;;;;275.10;159.93;;;;;;;;;;5053163;28;20915;-72
2022/05/03 10:24:02;;;;;;;291.60;157.63;;;;;;;;;;5054185;28;20500;-73
2022/05/03 10:26:45;;;;;;;197.00;153.10;;;;;;;;;;5045715;28;20484;-73
2022/05/03 10:29:13;;;;;;;273.90;149.70;;;;;;;;;;5054492;28;20813;-73
2022/05/03 10:32:00;;;;;;;275.40;178.13;;;;;;;;;;5055556;28;20454;-73
2022/05/03 10:34:47;;;;;;;312.50;153.47;;;;;;;;;;5055365;28;20528;-73
2022/05/03 10:37:16;;;;;;;329.50;168.73;;;;;;;;;;5055811;28;20481;-73
2022/05/03 10:39:54;;;;;;;208.73;160.83;;;;;;;;;;5054547;28;20453;-72
2022/05/03 10:42:24;;;;;;;247.30;150.87;;;;;;;;;;5053970;28;20495;-72
2022/05/03 10:45:11;;;;;;;237.03;152.33;;;;;;;;;;5045803;28;20815;-72
2022/05/03 10:47:57;;;;;;;288.90;185.93;;;;;;;;;;5048784;28;20445;-73
2022/05/03 10:50:40;;;;;;;330.27;162.83;;;;;;;;;;5054522;28;20464;-73
2022/05/03 10:53:23;;;;;;;365.67;176.13;;;;;;;;;;5051494;28;20939;-73
2022/05/03 10:56:12;;;;;;;402.83;171.83;;;;;;;;;;5052515;28;20469;-72
2022/05/03 10:59:06;;;;;;;301.17;170.93;;;;;;;;;;5056707;28;20448;-72
2022/05/03 11:04:56;;;;;;;387.47;151.00;;;;;;;;;;5046300;28;20507;-72
2022/05/03 11:07:34;;;;;;;378.27;155.60;;;;;;;;;;5041502;28;20478;-73
2022/05/03 11:10:23;;;;;;;359.47;173.03;;;;;;;;;;5054531;28;20476;-72
2022/05/03 11:12:54;;;;;;;406.37;181.63;;;;;;;;;;5046134;28;20458;-72
2022/05/03 11:15:27;;;;;;;376.67;173.00;;;;;;;;;;5053235;28;20865;-71
2022/05/03 11:17:55;;;;;;;341.77;178.67;;;;;;;;;;5053053;28;20541;-72
2022/05/03 11:20:27;;;;;;;384.13;156.27;;;;;;;;;;5052460;28;20544;-72
2022/05/03 11:23:08;;;;;;;285.50;184.67;;;;;;;;;;5044082;28;20572;-71
2022/05/03 11:25:39;;;;;;;285.07;162.40;;;;;;;;;;5054115;28;20464;-71
2022/05/03 11:28:09;;;;;;;308.43;156.03;;;;;;;;;;5053644;28;20469;-71
2022/05/03 11:30:37;;;;;;;324.10;161.43;;;;;;;;;;5052166;28;20457;-71
2022/05/03 11:33:08;;;;;;;265.17;164.67;;;;;;;;;;5053191;28;20964;-72
2022/05/03 11:35:44;;;;;;;231.07;170.57;;;;;;;;;;5053779;28;20469;-71
2022/05/03 11:38:14;;;;;;;349.07;170.27;;;;;;;;;;5052878;28;20552;-73
2022/05/03 11:40:44;;;;;;;276.00;163.03;;;;;;;;;;5052832;28;20800;-70
2022/05/03 11:43:13;;;;;;;380.67;155.93;;;;;;;;;;5052600;28;20492;-71
2022/05/03 11:45:45;;;;;;;314.07;164.90;;;;;;;;;;5052919;28;20462;-72
2022/05/03 11:48:18;;;;;;;331.97;163.77;;;;;;;;;;5052980;28;20800;-74
2022/05/03 11:57:16;;;;;;;246.20;160.47;;;;;;;;;;5053922;28;20428;-73
2022/05/03 12:00:15;;;;;;;304.23;162.00;;;;;;;;;;5053237;28;20535;-73
2022/05/03 12:03:06;;;;;;;281.27;154.80;;;;;;;;;;5045294;28;20497;-72
2022/05/03 12:05:45;;;;;;;338.67;155.97;;;;;;;;;;5052520;28;20484;-72
2022/05/03 12:08:22;;;;;;;161.40;144.70;;;;;;;;;;5052554;28;20481;-73
2022/05/03 12:11:09;;;;;;;278.60;173.10;;;;;;;;;;5052771;28;20535;-73
2022/05/03 12:19:45;;;;;;;375.13;175.73;;;;;;;;;;5051001;28;20494;-72
2022/05/03 12:22:15;;;;;;;310.30;177.63;;;;;;;;;;5053031;28;20449;-72
2022/05/03 12:24:51;;;;;;;316.70;189.47;;;;;;;;;;5045442;28;20904;-73
2022/05/03 12:27:27;;;;;;;335.23;181.33;;;;;;;;;;5052320;28;20483;-73
2022/05/03 12:29:57;;;;;;;343.13;184.57;;;;;;;;;;5045432;28;20861;-73
2022/05/03 12:32:24;;;;;;;361.13;187.53;;;;;;;;;;5052363;28;20469;-73
2022/05/03 12:35:00;;;;;;;340.50;185.90;;;;;;;;;;5052953;28;20515;-72
2022/05/03 12:37:29;;;;;;;365.73;182.13;;;;;;;;;;5052724;28;20461;-72
2022/05/03 12:40:01;;;;;;;287.20;176.40;;;;;;;;;;5050511;28;20495;-72
2022/05/03 12:42:29;;;;;;;401.20;166.30;;;;;;;;;;5052613;28;21008;-73
2022/05/03 12:44:59;;;;;;;394.03;163.87;;;;;;;;;;5053352;28;20527;-72
2022/05/03 12:47:28;;;;;;;376.17;176.70;;;;;;;;;;5052260;28;20515;-72
2022/05/03 12:49:55;;;;;;;348.37;168.97;;;;;;;;;;5052880;28;20519;-72
2022/05/03 12:52:24;;;;;;;340.03;192.37;;;;;;;;;;5056744;28;20461;-73
2022/05/03 12:54:52;;;;;;;358.67;167.30;;;;;;;;;;5045268;28;20470;-73
2022/05/03 13:00:11;;;;;;;364.13;180.77;;;;;;;;;;5046583;28;20729;-72
2022/05/03 13:02:50;;;;;;;343.73;191.90;;;;;;;;;;5049906;28;20484;-73
2022/05/03 13:05:18;;;;;;;387.87;171.53;;;;;;;;;;5052429;28;20531;-73
2022/05/03 13:07:49;;;;;;;367.30;196.10;;;;;;;;;;5051921;28;20465;-73
2022/05/03 13:10:18;;;;;;;391.60;187.17;;;;;;;;;;5051391;28;20600;-72
2022/05/03 13:12:51;;;;;;;404.63;178.77;;;;;;;;;;5044941;28;20729;-71
2022/05/03 13:15:24;;;;;;;385.13;173.83;;;;;;;;;;5055815;28;20500;-73
2022/05/03 13:17:55;;;;;;;379.83;168.77;;;;;;;;;;5055255;28;20497;-73
2022/05/03 13:20:23;;;;;;;343.73;181.43;;;;;;;;;;5054878;28;20573;-72
2022/05/03 13:22:54;;;;;;;347.27;181.90;;;;;;;;;;5054025;28;20489;-73
2022/05/03 13:25:22;;;;;;;312.77;172.23;;;;;;;;;;5056628;28;20468;-72
2022/05/03 13:27:54;;;;;;;337.00;191.30;;;;;;;;;;5056307;28;20453;-73
2022/05/03 13:30:29;;;;;;;233.47;204.70;;;;;;;;;;5062170;28;20572;-73
2022/05/03 13:33:03;;;;;;;216.87;194.27;;;;;;;;;;5055806;28;21120;-73
2022/05/03 13:41:11;;;;;;;280.13;200.20;;;;;;;;;;5058123;28;20939;-73
2022/05/03 13:43:42;;;;;;;322.63;172.57;;;;;;;;;;5054433;28;20481;-73
2022/05/03 13:49:30;;;;;;;224.13;202.57;;;;;;;;;;5035432;28;20449;-72
2022/05/03 13:52:04;;;;;;;314.63;199.47;;;;;;;;;;5056013;28;20471;-72
2022/05/03 14:00:46;;;;;;;223.10;179.30;;;;;;;;;;5050982;28;20558;-74
2022/05/03 14:03:16;;;;;;;304.93;210.43;;;;;;;;;;5054826;28;20477;-74
2022/05/03 14:05:46;;;;;;;401.73;198.43;;;;;;;;;;5056070;28;20489;-73
2022/05/03 14:08:14;;;;;;;295.70;203.90;;;;;;;;;;5048440;28;20477;-73
2022/05/03 14:10:58;;;;;;;;;;;;;;;;;;;;;
2022/05/03 14:13:30;;;;;;;296.73;202.07;;;;;;;;;;5048671;28;20469;-72
2022/05/03 14:16:00;;;;;;;285.03;191.80;;;;;;;;;;5052658;28;20461;-73
2022/05/03 14:18:30;;;;;;;279.33;202.23;;;;;;;;;;5054141;28;20469;-73
2022/05/03 14:21:09;;;;;;;372.50;194.73;;;;;;;;;;5052142;28;20594;-73
2022/05/03 14:23:40;;;;;;;311.87;198.40;;;;;;;;;;5054232;28;20564;-71
2022/05/03 14:26:13;;;;;;;355.20;184.63;;;;;;;;;;5052246;28;20539;-72
2022/05/03 14:31:55;;;;;;;323.10;189.10;;;;;;;;;;5052968;28;20481;-74
2022/05/03 14:34:34;;;;;;;309.70;206.23;;;;;;;;;;5046751;28;20469;-73
2022/05/03 14:37:19;;;;;;;324.93;189.63;;;;;;;;;;5051167;28;20465;-73
2022/05/03 14:39:58;;;;;;;306.43;171.80;;;;;;;;;;5054415;28;20840;-72
2022/05/03 14:42:26;;;;;;;285.57;172.27;;;;;;;;;;5053828;28;20454;-73
2022/05/03 14:44:55;;;;;;;317.87;185.53;;;;;;;;;;5054897;28;21026;-73
2022/05/03 14:47:24;;;;;;;304.33;203.63;;;;;;;;;;5055299;28;20536;-74
2022/05/03 14:49:52;;;;;;;343.87;198.90;;;;;;;;;;5054064;28;20457;-73
2022/05/03 14:52:24;;;;;;;340.73;186.93;;;;;;;;;;5053783;28;20461;-74
2022/05/03 14:55:15;;;;;;;303.00;191.97;;;;;;;;;;5054014;28;20487;-74
2022/05/03 15:03:46;;;;;;;;;;;;;;;;;;;;;
2022/05/03 15:06:15;;;;;;;372.47;195.90;;;;;;;;;;5035753;28;20475;-73
2022/05/03 15:12:28;;;;;;;270.43;185.57;;;;;;;;;;5062594;28;20484;-73
2022/05/03 15:14:59;;;;;;;320.00;197.10;;;;;;;;;;5060768;28;20457;-73
2022/05/03 15:17:30;;;;;;;210.30;188.90;;;;;;;;;;5059751;28;20467;-72
2022/05/03 15:20:28;;;;;;;328.17;221.73;;;;;;;;;;5062937;28;20452;-73
2022/05/03 15:25:44;;;;;;;205.90;186.60;;;;;;;;;;5052401;28;20460;-73
2022/05/03 15:28:13;;;;;;;217.53;200.23;;;;;;;;;;5055183;28;20548;-72
2022/05/03 15:30:53;;;;;;;190.53;173.77;;;;;;;;;;5052655;28;20560;-74
2022/05/03 15:33:22;;;;;;;212.43;195.83;;;;;;;;;;5052134;28;21061;-72
2022/05/03 15:35:50;;;;;;;185.93;169.83;;;;;;;;;;5049499;28;20757;-73
2022/05/03 15:38:18;;;;;;;215.10;174.20;;;;;;;;;;5053100;28;20463;-72
2022/05/03 15:40:56;;;;;;;224.57;195.97;;;;;;;;;;5052735;28;20477;-72
2022/05/03 15:43:34;;;;;;;279.23;180.70;;;;;;;;;;5051663;28;20480;-73
2022/05/03 15:46:03;;;;;;;206.87;184.30;;;;;;;;;;5053569;28;20465;-73
2022/05/03 15:48:35;;;;;;;246.80;183.57;;;;;;;;;;5052896;28;20477;-71
2022/05/03 15:51:06;;;;;;;266.40;189.33;;;;;;;;;;5053116;28;20462;-73
2022/05/03 15:53:38;;;;;;;263.93;176.37;;;;;;;;;;5052481;28;20895;-72
2022/05/03 15:56:07;;;;;;;288.13;179.37;;;;;;;;;;5054332;28;20946;-75
2022/05/03 15:58:37;;;;;;;263.70;161.20;;;;;;;;;;5055885;28;20487;-73
2022/05/03 16:01:07;;;;;;;330.20;179.77;;;;;;;;;;5054444;28;21075;-72
2022/05/03 16:03:37;;;;;;;341.43;176.30;;;;;;;;;;5055300;28;20485;-72
2022/05/03 16:06:07;;;;;;;355.30;160.13;;;;;;;;;;5052349;28;20461;-72
2022/05/03 16:08:35;;;;;;;348.40;205.87;;;;;;;;;;5052570;28;20465;-72